Time;durP1;ratioP1;P1;durP2;ratioP2;P2;SDS_P1;SDS_P2;PMS_P1;PMS_P2;Temp;Humidity;BMP_temperature;BMP_pressure;BME280_temperature;BME280_humidity;BME280_pressure;Samples;Min_cycle;Max_cycle;Signal;HPM_P1;HPM_P2
2024/02/02 00:02:22;;;;;;;18.80;6.70;;;4.70;99.90;;;;;;5043895;28;20540;-63
2024/02/02 00:04:51;;;;;;;28.87;6.80;;;4.70;99.90;;;;;;5046744;28;21761;-63
2024/02/02 00:07:22;;;;;;;23.37;7.20;;;4.80;99.90;;;;;;5045351;28;20224;-63
2024/02/02 00:09:50;;;;;;;25.23;6.67;;;4.80;99.90;;;;;;5044279;28;20216;-63
2024/02/02 00:12:18;;;;;;;26.83;7.10;;;4.90;99.90;;;;;;5044701;28;20560;-63
2024/02/02 00:14:46;;;;;;;24.07;7.33;;;4.90;99.90;;;;;;5044333;28;20217;-64
2024/02/02 00:17:15;;;;;;;27.00;7.10;;;4.80;99.90;;;;;;5048330;28;20252;-63
2024/02/02 00:19:43;;;;;;;30.10;7.70;;;4.80;99.90;;;;;;5044385;28;20822;-64
2024/02/02 00:22:12;;;;;;;29.10;7.33;;;4.80;99.90;;;;;;5046148;28;20319;-64
2024/02/02 00:24:42;;;;;;;30.03;7.43;;;4.90;99.90;;;;;;5041879;28;20240;-64
2024/02/02 00:27:14;;;;;;;32.70;8.53;;;4.90;99.90;;;;;;5044820;28;20314;-64
2024/02/02 00:29:45;;;;;;;22.03;6.50;;;4.90;99.90;;;;;;5042932;28;20700;-64
2024/02/02 00:32:14;;;;;;;21.07;6.67;;;4.90;99.90;;;;;;5044886;28;20233;-64
2024/02/02 00:34:43;;;;;;;29.50;7.57;;;4.90;99.90;;;;;;5043712;28;20204;-64
2024/02/02 00:37:13;;;;;;;25.13;6.73;;;4.90;99.90;;;;;;5047462;28;20220;-64
2024/02/02 00:39:43;;;;;;;23.77;7.57;;;4.80;99.90;;;;;;5044631;28;20225;-64
2024/02/02 00:42:11;;;;;;;28.47;7.37;;;4.90;99.90;;;;;;5046190;28;20229;-64
2024/02/02 00:44:40;;;;;;;19.70;6.90;;;4.80;99.90;;;;;;5045571;28;20229;-64
2024/02/02 00:47:08;;;;;;;23.73;7.47;;;4.80;99.90;;;;;;5043729;28;20188;-61
2024/02/02 00:49:36;;;;;;;23.93;7.03;;;4.80;99.90;;;;;;5044790;28;20205;-64
2024/02/02 00:52:05;;;;;;;22.97;6.77;;;4.70;99.90;;;;;;5046168;28;20216;-64
2024/02/02 00:54:33;;;;;;;28.90;6.40;;;4.70;99.90;;;;;;5041454;28;20209;-64
2024/02/02 00:57:03;;;;;;;25.37;6.50;;;4.70;99.90;;;;;;5043497;28;20255;-64
2024/02/02 00:59:32;;;;;;;28.40;7.77;;;4.80;99.90;;;;;;5043418;28;20235;-64
2024/02/02 01:02:00;;;;;;;21.50;6.43;;;4.80;99.90;;;;;;5045018;28;20193;-64
2024/02/02 01:04:28;;;;;;;26.80;6.70;;;4.80;99.90;;;;;;5044013;28;20924;-64
2024/02/02 01:06:57;;;;;;;27.17;6.60;;;4.90;99.90;;;;;;5042559;28;20639;-64
2024/02/02 01:09:25;;;;;;;27.33;6.33;;;4.90;99.90;;;;;;5041270;28;20572;-64
2024/02/02 01:11:54;;;;;;;20.13;5.87;;;5.00;99.90;;;;;;5039526;28;20907;-64
2024/02/02 01:14:24;;;;;;;25.07;5.77;;;5.00;99.90;;;;;;5046258;28;20219;-64
2024/02/02 01:16:52;;;;;;;20.67;6.13;;;5.00;99.90;;;;;;5045004;28;20217;-64
2024/02/02 01:19:21;;;;;;;25.37;6.27;;;5.10;99.90;;;;;;5039705;28;20221;-64
2024/02/02 01:21:50;;;;;;;17.50;5.07;;;5.10;99.90;;;;;;5043862;28;20224;-64
2024/02/02 01:24:18;;;;;;;18.50;5.40;;;5.20;99.90;;;;;;5044237;28;20221;-64
2024/02/02 01:26:46;;;;;;;23.13;5.90;;;5.20;99.90;;;;;;5047325;28;20256;-64
2024/02/02 01:29:15;;;;;;;26.37;5.00;;;5.20;99.90;;;;;;5046571;28;20278;-64
2024/02/02 01:31:44;;;;;;;20.70;5.50;;;5.20;99.90;;;;;;5046600;28;20224;-64
2024/02/02 01:34:13;;;;;;;25.73;6.30;;;5.20;99.90;;;;;;5044894;28;20218;-64
2024/02/02 01:36:41;;;;;;;20.10;5.83;;;5.20;99.90;;;;;;5043754;28;20314;-64
2024/02/02 01:39:13;;;;;;;22.77;5.43;;;5.10;99.90;;;;;;5043339;28;20223;-64
2024/02/02 01:41:41;;;;;;;22.00;6.30;;;5.10;99.90;;;;;;5042518;28;20226;-64
2024/02/02 01:44:10;;;;;;;18.47;5.20;;;5.20;99.90;;;;;;5045294;28;20670;-64
2024/02/02 01:46:38;;;;;;;24.83;6.23;;;5.10;99.90;;;;;;5043303;28;20213;-64
2024/02/02 01:49:08;;;;;;;20.73;5.33;;;5.00;99.90;;;;;;5042711;28;20223;-64
2024/02/02 01:51:36;;;;;;;23.27;5.43;;;5.10;99.90;;;;;;5045701;28;20216;-64
2024/02/02 01:54:07;;;;;;;22.00;5.37;;;5.00;99.90;;;;;;5043559;28;20221;-64
2024/02/02 01:56:36;;;;;;;27.03;5.60;;;5.00;99.90;;;;;;5042530;28;20239;-64
2024/02/02 01:59:05;;;;;;;19.10;5.40;;;5.00;99.90;;;;;;5043495;28;20201;-64
2024/02/02 02:01:33;;;;;;;16.93;5.03;;;5.00;99.90;;;;;;5057499;28;20224;-64
2024/02/02 02:04:02;;;;;;;16.87;5.77;;;4.90;99.90;;;;;;5041588;28;20228;-64
2024/02/02 02:06:35;;;;;;;21.57;5.33;;;4.90;99.90;;;;;;5044134;28;20307;-64
2024/02/02 02:09:03;;;;;;;20.17;5.80;;;4.90;99.90;;;;;;5042643;28;20248;-64
2024/02/02 02:11:31;;;;;;;23.63;5.67;;;4.90;99.90;;;;;;5040949;28;20840;-64
2024/02/02 02:14:00;;;;;;;20.87;5.53;;;4.80;99.90;;;;;;5043122;28;20193;-64
2024/02/02 02:16:28;;;;;;;19.27;5.33;;;4.70;99.90;;;;;;5044162;28;20231;-64
2024/02/02 02:18:56;;;;;;;14.63;5.37;;;4.70;99.90;;;;;;5044159;28;20213;-65
2024/02/02 02:21:32;;;;;;;18.80;5.67;;;4.70;99.90;;;;;;5041368;28;20247;-64
2024/02/02 02:24:01;;;;;;;21.27;5.40;;;4.70;99.90;;;;;;5037653;28;20717;-64
2024/02/02 02:26:31;;;;;;;19.57;5.67;;;4.70;99.90;;;;;;5047286;28;20243;-64
2024/02/02 02:28:59;;;;;;;26.20;5.53;;;4.70;99.90;;;;;;5038825;28;20219;-64
2024/02/02 02:31:28;;;;;;;23.50;5.73;;;4.70;99.90;;;;;;5041018;28;20637;-64
2024/02/02 02:33:56;;;;;;;21.83;5.13;;;4.60;99.90;;;;;;5040303;28;20243;-64
2024/02/02 02:36:26;;;;;;;24.53;5.27;;;4.50;99.90;;;;;;5041336;28;20220;-64
2024/02/02 02:38:56;;;;;;;21.67;5.70;;;4.50;99.90;;;;;;5042920;28;20227;-64
2024/02/02 02:41:25;;;;;;;26.20;6.03;;;4.50;99.90;;;;;;5040199;28;20201;-64
2024/02/02 02:43:53;;;;;;;24.03;6.03;;;4.50;99.90;;;;;;5040115;28;20200;-64
2024/02/02 02:46:22;;;;;;;28.97;5.30;;;4.60;99.90;;;;;;5046243;28;20229;-64
2024/02/02 02:48:50;;;;;;;33.43;6.13;;;4.70;99.90;;;;;;5044267;28;20573;-64
2024/02/02 02:51:20;;;;;;;24.50;5.77;;;4.70;99.90;;;;;;5041182;28;20217;-64
2024/02/02 02:53:48;;;;;;;20.40;5.63;;;4.70;99.90;;;;;;5043316;28;20262;-64
2024/02/02 02:56:18;;;;;;;20.97;5.43;;;4.70;99.90;;;;;;5040577;28;20205;-64
2024/02/02 02:58:46;;;;;;;13.43;5.37;;;4.70;99.90;;;;;;5043005;28;20192;-64
2024/02/02 03:01:14;;;;;;;19.90;6.43;;;4.70;99.90;;;;;;5041452;28;20220;-64
2024/02/02 03:03:43;;;;;;;24.63;5.37;;;4.70;99.90;;;;;;5041511;28;20283;-64
2024/02/02 03:06:14;;;;;;;24.60;5.50;;;4.60;99.90;;;;;;5041362;28;20316;-65
2024/02/02 03:08:42;;;;;;;23.93;6.30;;;4.70;99.90;;;;;;5040025;28;20675;-64
2024/02/02 03:11:11;;;;;;;20.10;5.70;;;4.60;99.90;;;;;;5040541;28;20200;-64
2024/02/02 03:13:41;;;;;;;19.83;5.23;;;4.60;99.90;;;;;;5039886;28;20200;-64
2024/02/02 03:16:09;;;;;;;23.80;5.40;;;4.60;99.90;;;;;;5042388;28;20223;-64
2024/02/02 03:18:37;;;;;;;25.77;5.30;;;4.60;99.90;;;;;;5040121;28;20220;-64
2024/02/02 03:21:08;;;;;;;14.73;5.50;;;4.60;99.90;;;;;;5044618;28;20256;-64
2024/02/02 03:23:36;;;;;;;17.70;5.57;;;4.60;99.90;;;;;;5039505;28;20609;-64
2024/02/02 03:26:05;;;;;;;18.63;6.40;;;4.60;99.90;;;;;;5046580;28;20220;-64
2024/02/02 03:28:33;;;;;;;22.57;4.97;;;4.60;99.90;;;;;;5050557;28;20221;-64
2024/02/02 03:31:06;;;;;;;23.20;5.27;;;4.60;99.90;;;;;;5051831;28;20216;-64
2024/02/02 03:33:36;;;;;;;19.80;4.87;;;4.70;99.90;;;;;;5047190;28;20590;-65
2024/02/02 03:36:05;;;;;;;22.70;5.27;;;4.70;99.90;;;;;;5049228;28;20263;-64
2024/02/02 03:38:34;;;;;;;22.87;4.93;;;4.70;99.90;;;;;;5050220;28;20230;-64
2024/02/02 03:41:02;;;;;;;25.70;5.63;;;4.80;99.90;;;;;;5050601;28;20207;-64
2024/02/02 03:43:30;;;;;;;19.03;4.43;;;4.80;99.90;;;;;;5050443;28;20244;-64
2024/02/02 03:45:59;;;;;;;25.50;4.80;;;4.90;99.90;;;;;;5046021;28;20220;-64
2024/02/02 03:48:28;;;;;;;23.53;5.10;;;4.90;99.90;;;;;;5050012;28;20586;-64
2024/02/02 03:50:57;;;;;;;31.03;5.27;;;4.90;99.90;;;;;;5048859;28;20690;-64
2024/02/02 03:53:25;;;;;;;25.50;4.70;;;5.00;99.90;;;;;;5052093;28;20197;-64
2024/02/02 03:55:53;;;;;;;27.73;4.77;;;5.00;99.90;;;;;;5047936;28;20196;-64
2024/02/02 03:58:22;;;;;;;37.13;4.60;;;5.00;99.90;;;;;;5049842;28;20220;-64
2024/02/02 04:00:50;;;;;;;20.03;4.97;;;5.10;99.90;;;;;;5044828;28;20216;-64
2024/02/02 04:03:19;;;;;;;25.80;4.67;;;5.10;99.90;;;;;;5049576;28;20224;-64
2024/02/02 04:05:49;;;;;;;19.40;4.57;;;5.10;99.90;;;;;;5049262;28;20239;-64
2024/02/02 04:08:17;;;;;;;19.30;3.90;;;5.10;99.90;;;;;;5048995;28;20199;-64
2024/02/02 04:10:47;;;;;;;20.07;4.30;;;5.10;99.90;;;;;;5051467;28;20635;-64
2024/02/02 04:13:16;;;;;;;21.83;4.67;;;5.10;99.90;;;;;;5047234;28;20220;-64
2024/02/02 04:15:45;;;;;;;21.10;4.50;;;5.10;99.90;;;;;;5048887;28;20258;-64
2024/02/02 04:18:13;;;;;;;27.53;5.40;;;5.10;99.90;;;;;;5050232;28;20220;-64
2024/02/02 04:20:42;;;;;;;20.80;4.30;;;5.10;99.90;;;;;;5048727;28;20240;-65
2024/02/02 04:23:12;;;;;;;24.47;4.10;;;5.10;99.90;;;;;;5046976;28;20201;-63
2024/02/02 04:25:40;;;;;;;21.47;5.30;;;5.10;99.90;;;;;;5049231;28;20342;-64
2024/02/02 04:28:09;;;;;;;20.40;4.87;;;5.00;99.90;;;;;;5048474;28;20232;-64
2024/02/02 04:30:37;;;;;;;20.17;4.23;;;5.00;99.90;;;;;;5046368;28;20228;-64
2024/02/02 04:33:06;;;;;;;19.43;4.27;;;5.00;99.90;;;;;;5048515;28;20229;-64
2024/02/02 04:35:35;;;;;;;27.57;4.63;;;5.00;99.90;;;;;;5046716;28;20220;-64
2024/02/02 04:38:04;;;;;;;20.57;4.63;;;5.10;99.90;;;;;;5048642;28;20189;-64
2024/02/02 04:40:35;;;;;;;24.43;4.87;;;5.00;99.90;;;;;;5043817;28;20236;-64
2024/02/02 04:43:03;;;;;;;21.10;4.70;;;5.00;99.90;;;;;;5049291;28;20219;-64
2024/02/02 04:45:31;;;;;;;21.23;4.33;;;5.00;99.90;;;;;;5047027;28;20224;-64
2024/02/02 04:48:00;;;;;;;19.50;4.07;;;4.90;99.90;;;;;;5046137;28;20228;-64
2024/02/02 04:50:28;;;;;;;25.33;4.97;;;4.90;99.90;;;;;;5043560;28;20248;-64
2024/02/02 04:52:57;;;;;;;21.50;4.50;;;4.90;99.90;;;;;;5045275;28;20199;-65
2024/02/02 04:55:25;;;;;;;24.43;5.30;;;4.90;99.90;;;;;;5046045;28;20209;-64
2024/02/02 04:57:55;;;;;;;22.63;4.67;;;4.90;99.90;;;;;;5045244;28;20631;-64
2024/02/02 05:00:23;;;;;;;23.53;3.93;;;4.90;99.90;;;;;;5044938;28;20228;-64
2024/02/02 05:02:51;;;;;;;27.33;4.93;;;4.80;99.90;;;;;;5042989;28;20260;-65
2024/02/02 05:05:22;;;;;;;21.63;4.57;;;4.80;99.90;;;;;;5044591;28;20629;-65
2024/02/02 05:07:51;;;;;;;26.87;5.80;;;4.80;99.90;;;;;;5046373;28;20217;-64
2024/02/02 05:10:19;;;;;;;25.97;4.57;;;4.80;99.90;;;;;;5046120;28;20216;-64
2024/02/02 05:12:48;;;;;;;21.63;5.23;;;4.80;99.90;;;;;;5043218;28;20225;-64
2024/02/02 05:15:18;;;;;;;23.83;4.70;;;4.80;99.90;;;;;;5047705;28;20216;-64
2024/02/02 05:17:46;;;;;;;21.07;4.73;;;4.80;99.90;;;;;;5046818;28;20695;-64
2024/02/02 05:20:15;;;;;;;22.10;4.37;;;4.80;99.90;;;;;;5042187;28;20204;-64
2024/02/02 05:22:43;;;;;;;23.90;4.70;;;4.80;99.90;;;;;;5044492;28;20192;-64
2024/02/02 05:25:11;;;;;;;31.03;5.17;;;4.80;99.90;;;;;;5045294;28;20590;-64
2024/02/02 05:27:42;;;;;;;23.60;4.47;;;4.80;99.90;;;;;;5045226;28;20213;-64
2024/02/02 05:30:11;;;;;;;21.47;4.93;;;4.90;99.90;;;;;;5046969;28;20311;-64
2024/02/02 05:32:41;;;;;;;31.83;4.83;;;4.90;99.90;;;;;;5043285;28;20243;-64
2024/02/02 05:35:10;;;;;;;26.20;4.73;;;4.90;99.90;;;;;;5040182;28;20231;-64
2024/02/02 05:37:38;;;;;;;24.27;4.60;;;4.90;99.90;;;;;;5045926;28;20196;-64
2024/02/02 05:40:08;;;;;;;20.63;4.60;;;4.90;99.90;;;;;;5039040;28;20287;-64
2024/02/02 05:42:36;;;;;;;18.43;4.60;;;4.80;99.90;;;;;;5043721;28;20221;-64
2024/02/02 05:45:06;;;;;;;20.73;4.63;;;4.80;99.90;;;;;;5041971;28;20213;-64
2024/02/02 05:47:34;;;;;;;28.40;5.80;;;4.90;99.90;;;;;;5045843;28;20318;-65
2024/02/02 05:50:04;;;;;;;18.43;4.43;;;4.90;99.90;;;;;;5043397;28;20201;-63
2024/02/02 05:52:32;;;;;;;27.97;5.20;;;4.80;99.90;;;;;;5042216;28;20229;-63
2024/02/02 05:55:01;;;;;;;24.87;4.50;;;4.80;99.90;;;;;;5043061;28;20308;-63
2024/02/02 05:57:29;;;;;;;25.93;5.20;;;4.80;99.90;;;;;;5043074;28;20219;-63
2024/02/02 05:59:57;;;;;;;16.57;4.70;;;4.80;99.90;;;;;;5042954;28;20208;-63
2024/02/02 06:02:25;;;;;;;25.37;5.50;;;4.70;99.90;;;;;;5041813;28;20203;-63
2024/02/02 06:04:54;;;;;;;17.87;4.23;;;4.70;99.90;;;;;;5044663;28;20671;-63
2024/02/02 06:07:23;;;;;;;20.57;4.77;;;4.70;99.90;;;;;;5041080;28;20226;-63
2024/02/02 06:09:52;;;;;;;26.65;5.32;;;4.70;99.90;;;;;;5031492;28;20524;-63
2024/02/02 06:12:20;;;;;;;24.40;4.87;;;4.60;99.90;;;;;;5031502;28;20928;-63
2024/02/02 06:14:49;;;;;;;28.17;5.47;;;4.70;99.90;;;;;;5042347;28;20239;-63
2024/02/02 06:17:17;;;;;;;23.43;5.07;;;4.70;99.90;;;;;;5043590;28;20236;-63
2024/02/02 06:19:45;;;;;;;26.33;4.97;;;4.60;99.90;;;;;;5044665;28;20308;-63
2024/02/02 06:22:13;;;;;;;35.40;5.20;;;4.70;99.90;;;;;;5044146;28;20592;-63
2024/02/02 06:24:43;;;;;;;23.93;4.57;;;4.70;99.90;;;;;;5043887;28;20624;-63
2024/02/02 06:27:12;;;;;;;27.83;5.57;;;4.70;99.90;;;;;;5041216;28;20617;-63
2024/02/02 06:29:40;;;;;;;24.47;5.20;;;4.70;99.90;;;;;;5045737;28;20229;-63
2024/02/02 06:32:08;;;;;;;16.67;4.40;;;4.70;99.90;;;;;;5044736;28;20234;-63
2024/02/02 06:34:37;;;;;;;22.07;5.13;;;4.70;99.90;;;;;;5042023;28;20220;-63
2024/02/02 06:37:05;;;;;;;16.77;4.60;;;4.60;99.90;;;;;;5044511;28;20781;-63
2024/02/02 06:39:36;;;;;;;16.13;4.77;;;4.70;99.90;;;;;;5043242;28;20727;-64
2024/02/02 06:42:07;;;;;;;18.83;4.53;;;4.70;99.90;;;;;;5045752;28;20296;-64
2024/02/02 06:44:35;;;;;;;31.40;5.70;;;4.70;99.90;;;;;;5041315;28;20679;-65
2024/02/02 06:47:04;;;;;;;26.93;5.50;;;4.70;99.90;;;;;;5044055;28;21136;-64
2024/02/02 06:49:32;;;;;;;23.80;4.53;;;4.70;99.90;;;;;;5040105;28;20708;-65
2024/02/02 06:52:00;;;;;;;27.77;5.10;;;4.80;99.90;;;;;;5043470;28;20242;-65
2024/02/02 06:54:29;;;;;;;23.07;5.03;;;4.80;99.90;;;;;;5042230;28;20212;-65
2024/02/02 06:56:57;;;;;;;24.13;4.90;;;4.80;99.90;;;;;;5044512;28;20232;-65
2024/02/02 06:59:27;;;;;;;28.00;4.87;;;4.80;99.90;;;;;;5041385;28;20196;-64
2024/02/02 07:01:56;;;;;;;24.83;4.73;;;4.80;99.90;;;;;;5041431;28;20949;-64
2024/02/02 07:04:25;;;;;;;28.17;5.07;;;4.80;99.90;;;;;;5035641;28;20225;-63
2024/02/02 07:06:53;;;;;;;20.40;5.47;;;4.70;99.90;;;;;;5042411;28;20300;-65
2024/02/02 07:09:29;;;;;;;22.53;5.47;;;4.70;99.90;;;;;;5045336;28;20738;-63
2024/02/02 07:12:00;;;;;;;30.80;5.27;;;4.70;99.90;;;;;;5040678;28;20234;-64
2024/02/02 07:14:49;;;;;;;18.87;5.30;;;4.80;99.90;;;;;;5041526;28;20315;-63
2024/02/02 07:17:32;;;;;;;26.30;5.87;;;4.80;99.90;;;;;;5043348;28;20248;-64
2024/02/02 07:20:01;;;;;;;26.23;6.13;;;4.80;99.90;;;;;;5043261;28;20272;-64
2024/02/02 07:22:36;;;;;;;31.63;6.43;;;4.80;99.90;;;;;;5042466;28;20229;-64
2024/02/02 07:25:06;;;;;;;21.13;6.20;;;4.90;99.90;;;;;;5043219;28;20224;-64
2024/02/02 07:27:53;;;;;;;25.97;6.20;;;4.90;99.90;;;;;;5040133;28;20212;-63
2024/02/02 07:30:51;;;;;;;26.93;6.30;;;5.00;99.90;;;;;;5042528;28;20594;-64
2024/02/02 07:33:24;;;;;;;27.20;6.80;;;5.00;99.90;;;;;;5032458;28;20228;-64
2024/02/02 07:35:54;;;;;;;31.20;7.23;;;5.10;99.90;;;;;;5042917;28;20251;-64
2024/02/02 07:38:46;;;;;;;35.27;7.73;;;5.10;99.90;;;;;;5041430;28;20182;-63
2024/02/02 07:41:16;;;;;;;37.10;8.30;;;5.10;99.90;;;;;;5040404;28;20209;-62
2024/02/02 07:43:46;;;;;;;30.80;8.67;;;5.20;99.90;;;;;;5043156;28;20292;-64
2024/02/02 07:46:16;;;;;;;30.10;7.87;;;5.20;99.90;;;;;;5041101;28;20252;-64
2024/02/02 07:48:46;;;;;;;33.23;7.63;;;5.30;99.90;;;;;;5040461;28;20223;-64
2024/02/02 07:51:17;;;;;;;28.57;8.70;;;5.30;99.90;;;;;;5040700;28;20212;-64
2024/02/02 07:53:47;;;;;;;26.87;8.50;;;5.30;99.90;;;;;;5043427;28;20304;-64
2024/02/02 07:56:17;;;;;;;28.43;7.97;;;5.30;99.90;;;;;;5041685;28;21300;-63
2024/02/02 07:58:46;;;;;;;30.60;7.90;;;5.40;99.90;;;;;;5041468;28;20197;-64
2024/02/02 08:01:15;;;;;;;28.50;9.17;;;5.40;99.90;;;;;;5038962;28;20227;-64
2024/02/02 08:03:44;;;;;;;29.10;8.00;;;5.40;99.90;;;;;;5039129;28;20232;-64
2024/02/02 08:06:13;;;;;;;23.40;7.40;;;5.40;99.90;;;;;;5039442;28;20212;-64
2024/02/02 08:08:43;;;;;;;28.10;7.23;;;5.40;99.90;;;;;;5041163;28;20260;-63
2024/02/02 08:11:11;;;;;;;25.97;7.50;;;5.50;99.90;;;;;;5040889;28;20606;-64
2024/02/02 08:13:39;;;;;;;23.43;7.83;;;5.50;99.90;;;;;;5042346;28;20258;-64
2024/02/02 08:16:08;;;;;;;25.77;7.80;;;5.50;99.90;;;;;;5045755;28;20228;-64
2024/02/02 08:18:39;;;;;;;28.80;7.93;;;5.50;99.90;;;;;;5047554;28;20622;-64
2024/02/02 08:21:07;;;;;;;23.23;7.77;;;5.60;99.90;;;;;;5043859;28;20239;-64
2024/02/02 08:23:37;;;;;;;24.50;8.40;;;5.60;99.90;;;;;;5042447;28;20224;-64
2024/02/02 08:26:06;;;;;;;28.27;8.03;;;5.60;99.90;;;;;;5043637;28;20288;-64
2024/02/02 08:28:35;;;;;;;30.03;8.13;;;5.60;99.90;;;;;;5047857;28;20233;-64
2024/02/02 08:31:18;;;;;;;27.37;8.60;;;5.60;99.90;;;;;;5044956;28;20225;-64
2024/02/02 08:33:48;;;;;;;28.87;9.50;;;5.70;99.90;;;;;;5044559;28;20247;-64
2024/02/02 08:36:17;;;;;;;22.27;8.07;;;5.70;99.90;;;;;;5045704;28;20284;-64
2024/02/02 08:38:46;;;;;;;25.03;7.60;;;5.80;99.90;;;;;;5048819;28;20615;-64
2024/02/02 08:41:15;;;;;;;22.97;7.60;;;5.80;99.90;;;;;;5045700;28;20312;-63
2024/02/02 08:43:43;;;;;;;23.27;7.27;;;5.90;99.90;;;;;;5045023;28;20201;-64
2024/02/02 08:46:19;;;;;;;28.27;7.30;;;5.90;99.90;;;;;;5043522;28;20696;-63
2024/02/02 08:48:50;;;;;;;28.57;7.20;;;5.90;99.90;;;;;;5043987;28;20220;-64
2024/02/02 08:51:52;;;;;;;27.93;6.67;;;5.80;99.90;;;;;;5047359;28;20648;-64
2024/02/02 08:54:34;;;;;;;25.97;7.43;;;5.80;99.90;;;;;;5044427;28;20852;-63
2024/02/02 08:57:29;;;;;;;27.67;7.40;;;5.80;99.90;;;;;;5045068;28;20217;-64
2024/02/02 09:00:04;;;;;;;30.77;7.47;;;5.80;99.90;;;;;;5040642;28;20221;-63
2024/02/02 09:02:53;;;;;;;21.57;6.70;;;5.90;99.90;;;;;;5041056;28;20224;-64
2024/02/02 09:05:24;;;;;;;26.93;6.97;;;5.90;99.90;;;;;;5037677;28;20660;-63
2024/02/02 09:08:04;;;;;;;21.53;7.80;;;5.90;99.90;;;;;;5043529;28;20189;-64
2024/02/02 09:11:21;;;;;;;29.33;6.90;;;6.00;99.90;;;;;;5037817;28;22078;-64
2024/02/02 09:13:58;;;;;;;19.40;7.23;;;6.00;99.90;;;;;;5042768;28;20225;-64
2024/02/02 09:16:43;;;;;;;32.63;8.47;;;6.10;99.90;;;;;;5040029;28;20598;-64
2024/02/02 09:19:21;;;;;;;31.70;7.63;;;6.30;99.90;;;;;;5047709;28;20580;-64
2024/02/02 09:21:52;;;;;;;34.73;9.40;;;6.40;99.90;;;;;;5040652;28;20228;-64
2024/02/02 09:24:39;;;;;;;32.27;9.50;;;6.50;99.90;;;;;;5042010;28;20225;-64
2024/02/02 09:27:12;;;;;;;31.03;9.27;;;6.60;99.90;;;;;;5044901;28;20217;-64
2024/02/02 09:29:45;;;;;;;29.23;8.57;;;6.60;99.90;;;;;;5042940;28;20730;-64
2024/02/02 09:32:16;;;;;;;33.03;10.10;;;6.70;99.90;;;;;;5036530;28;20758;-63
2024/02/02 09:34:45;;;;;;;31.53;9.90;;;6.80;99.90;;;;;;5041631;28;20201;-65
2024/02/02 09:37:22;;;;;;;28.90;10.47;;;6.80;99.90;;;;;;5042925;28;20220;-65
2024/02/02 09:39:53;;;;;;;34.23;11.13;;;6.90;99.90;;;;;;5036947;28;20217;-64
2024/02/02 09:42:46;;;;;;;42.63;11.70;;;7.00;99.90;;;;;;5039064;28;20719;-64
2024/02/02 09:45:24;;;;;;;41.77;10.43;;;7.00;99.90;;;;;;5046049;28;20251;-64
2024/02/02 09:48:06;;;;;;;45.47;11.47;;;7.10;99.90;;;;;;5035765;28;20224;-64
2024/02/02 09:50:55;;;;;;;43.00;11.73;;;7.10;99.90;;;;;;5038224;28;20244;-64
2024/02/02 09:54:07;;;;;;;38.03;11.40;;;7.10;99.90;;;;;;5045743;28;20647;-65
2024/02/02 09:56:48;;;;;;;33.03;10.53;;;7.20;99.90;;;;;;4980615;28;20347;-64
2024/02/02 09:59:33;;;;;;;52.00;12.20;;;7.30;99.90;;;;;;4981999;28;20203;-64
2024/02/02 10:02:34;;;;;;;42.53;10.90;;;7.30;99.90;;;;;;5025880;28;20326;-64
2024/02/02 10:05:15;;;;;;;49.63;12.47;;;7.40;99.90;;;;;;5041756;28;20560;-65
2024/02/02 10:07:54;;;;;;;41.37;11.50;;;7.50;99.90;;;;;;5039031;28;20308;-65
2024/02/02 10:10:39;;;;;;;43.60;12.17;;;7.50;99.90;;;;;;5036181;28;20224;-64
2024/02/02 10:13:19;;;;;;;41.80;12.40;;;7.60;99.90;;;;;;5040666;28;20220;-64
2024/02/02 10:16:12;;;;;;;41.93;11.67;;;7.60;99.90;;;;;;5039672;28;20676;-64
2024/02/02 10:19:07;;;;;;;41.83;11.77;;;7.70;99.90;;;;;;5043087;28;20228;-64
2024/02/02 10:21:47;;;;;;;46.40;12.33;;;7.80;99.90;;;;;;5043871;28;20224;-65
2024/02/02 10:24:32;;;;;;;39.73;12.20;;;7.80;99.90;;;;;;5041891;28;20221;-64
2024/02/02 10:27:19;;;;;;;32.57;12.57;;;7.90;99.90;;;;;;5043078;28;20220;-65
2024/02/02 10:30:04;;;;;;;40.13;12.47;;;7.90;99.90;;;;;;5040476;28;20287;-64
2024/02/02 10:32:57;;;;;;;51.63;13.10;;;7.90;99.90;;;;;;5039963;28;20225;-64
2024/02/02 10:35:36;;;;;;;38.33;13.23;;;7.90;99.90;;;;;;5040871;28;20625;-64
2024/02/02 10:38:14;;;;;;;36.20;13.17;;;8.00;99.90;;;;;;5041681;28;20221;-65
2024/02/02 10:40:54;;;;;;;38.47;12.87;;;8.10;99.90;;;;;;5037666;28;20216;-64
2024/02/02 10:43:45;;;;;;;43.43;13.63;;;8.10;99.90;;;;;;5041808;28;20232;-65
2024/02/02 10:46:37;;;;;;;42.60;13.47;;;8.10;99.90;;;;;;5040992;28;20224;-64
2024/02/02 10:49:39;;;;;;;38.37;12.93;;;8.10;99.90;;;;;;5042230;28;20229;-65
2024/02/02 10:52:16;;;;;;;43.33;13.07;;;8.10;99.90;;;;;;5038132;28;20230;-65
2024/02/02 10:55:04;;;;;;;43.30;14.13;;;8.20;99.90;;;;;;5037320;28;20378;-65
2024/02/02 10:57:50;;;;;;;42.63;13.77;;;8.20;99.90;;;;;;5036789;28;20221;-65
2024/02/02 11:00:22;;;;;;;42.63;13.37;;;8.20;99.90;;;;;;5041401;28;20233;-64
2024/02/02 11:03:22;;;;;;;45.17;14.10;;;8.20;99.90;;;;;;5045802;28;20213;-64
2024/02/02 11:05:58;;;;;;;54.50;15.10;;;8.20;99.90;;;;;;5040240;28;20228;-64
2024/02/02 11:08:30;;;;;;;49.40;14.77;;;8.20;99.90;;;;;;5041298;28;20216;-64
2024/02/02 11:11:05;;;;;;;47.13;16.27;;;8.20;99.90;;;;;;5041007;28;20666;-64
2024/02/02 11:13:44;;;;;;;48.63;15.00;;;8.20;99.90;;;;;;5043390;28;20220;-64
2024/02/02 11:16:33;;;;;;;56.73;16.70;;;8.20;99.90;;;;;;5055354;28;20290;-64
2024/02/02 11:19:16;;;;;;;52.23;15.60;;;8.20;99.90;;;;;;5038620;28;20318;-65
2024/02/02 11:22:07;;;;;;;47.07;15.50;;;8.10;99.90;;;;;;5038946;28;20228;-65
2024/02/02 11:24:50;;;;;;;55.50;15.37;;;8.20;99.90;;;;;;5040202;28;20751;-65
2024/02/02 11:27:25;;;;;;;46.17;16.07;;;8.30;99.90;;;;;;5042868;28;20307;-65
2024/02/02 11:30:04;;;;;;;60.60;17.50;;;8.30;99.90;;;;;;5041770;28;20221;-65
2024/02/02 11:33:03;;;;;;;54.60;16.30;;;8.30;99.90;;;;;;5039566;28;20256;-65
2024/02/02 11:35:41;;;;;;;54.43;16.37;;;8.20;99.90;;;;;;5038373;28;20802;-65
2024/02/02 11:38:31;;;;;;;50.00;16.37;;;8.20;99.90;;;;;;5040609;28;20193;-63
2024/02/02 11:40:59;;;;;;;59.97;17.57;;;8.20;99.90;;;;;;5040704;28;20192;-65
2024/02/02 11:43:30;;;;;;;43.53;16.77;;;8.20;99.90;;;;;;5041122;28;20282;-65
2024/02/02 11:46:00;;;;;;;63.40;16.37;;;8.10;99.90;;;;;;5044280;28;20220;-65
2024/02/02 11:48:37;;;;;;;58.10;18.23;;;8.20;99.90;;;;;;5043973;28;20220;-65
2024/02/02 11:51:07;;;;;;;46.60;16.90;;;8.30;99.90;;;;;;5049134;28;20311;-65
2024/02/02 11:53:41;;;;;;;58.00;17.73;;;8.30;99.90;;;;;;5038992;28;20223;-65
2024/02/02 11:56:17;;;;;;;54.63;17.77;;;8.30;99.90;;;;;;5041795;28;20196;-64
2024/02/02 11:58:50;;;;;;;59.47;18.53;;;8.30;99.90;;;;;;5057439;28;20204;-65
2024/02/02 12:01:28;;;;;;;46.87;17.63;;;8.30;99.90;;;;;;5044160;28;20217;-65
2024/02/02 12:04:14;;;;;;;52.07;18.43;;;8.30;99.90;;;;;;5047769;28;20224;-65
2024/02/02 12:06:55;;;;;;;58.13;16.73;;;8.40;99.90;;;;;;5045779;28;20299;-65
2024/02/02 12:09:28;;;;;;;52.90;17.17;;;8.30;99.90;;;;;;5041806;28;20216;-65
2024/02/02 12:11:58;;;;;;;64.57;18.93;;;8.40;99.90;;;;;;5047667;28;20303;-65
2024/02/02 12:14:30;;;;;;;61.00;19.90;;;8.40;99.90;;;;;;5041841;28;20235;-64
2024/02/02 12:17:00;;;;;;;75.20;22.30;;;8.40;99.90;;;;;;5046947;28;20192;-64
2024/02/02 12:19:30;;;;;;;100.80;24.67;;;8.30;99.90;;;;;;5046276;28;20221;-65
2024/02/02 12:21:58;;;;;;;98.17;23.90;;;8.30;99.90;;;;;;5046441;28;20217;-65
2024/02/02 12:24:28;;;;;;;118.73;26.17;;;8.30;99.90;;;;;;5044130;28;20224;-65
2024/02/02 12:26:57;;;;;;;173.03;32.27;;;8.40;99.90;;;;;;5045122;28;20298;-65
2024/02/02 12:29:26;;;;;;;182.03;32.73;;;8.40;99.90;;;;;;5045703;28;20793;-65
2024/02/02 12:31:54;;;;;;;245.83;38.07;;;8.50;99.90;;;;;;5036743;28;20236;-65
2024/02/02 12:34:23;;;;;;;251.20;38.67;;;8.50;99.90;;;;;;5044212;28;20223;-65
2024/02/02 12:36:53;;;;;;;166.10;36.13;;;8.60;99.90;;;;;;5047723;28;20607;-61
2024/02/02 12:39:21;;;;;;;220.80;41.53;;;8.60;99.90;;;;;;5047571;28;20274;-61
2024/02/02 12:41:50;;;;;;;151.27;37.57;;;8.80;99.90;;;;;;5040580;28;20310;-61
2024/02/02 12:44:19;;;;;;;112.83;33.17;;;8.80;99.90;;;;;;5040532;28;20188;-62
2024/02/02 12:46:47;;;;;;;88.43;29.30;;;8.90;99.90;;;;;;5047929;28;20289;-62
2024/02/02 12:49:16;;;;;;;112.83;36.93;;;8.90;99.90;;;;;;5046296;28;20220;-62
2024/02/02 12:51:44;;;;;;;94.77;32.10;;;9.00;99.90;;;;;;5049026;28;20714;-62
2024/02/02 12:54:15;;;;;;;63.60;21.70;;;9.10;99.90;;;;;;5049912;28;20645;-62
2024/02/02 12:56:44;;;;;;;48.20;18.80;;;9.20;99.90;;;;;;5045396;28;20216;-62
2024/02/02 12:59:17;;;;;;;56.70;18.60;;;9.40;99.90;;;;;;5047421;28;20227;-62
2024/02/02 13:01:47;;;;;;;36.10;16.07;;;9.50;99.90;;;;;;5045286;28;20199;-62
2024/02/02 13:04:17;;;;;;;38.20;15.23;;;9.60;99.90;;;;;;5047201;28;20283;-62
2024/02/02 13:06:46;;;;;;;24.53;11.67;;;9.80;99.90;;;;;;5047577;28;20221;-62
2024/02/02 13:09:18;;;;;;;32.63;12.70;;;9.90;99.90;;;;;;5043662;28;20224;-62
2024/02/02 13:11:47;;;;;;;21.63;10.33;;;10.00;99.90;;;;;;5039718;28;20240;-62